createdAt,value
2024-05-09T00:00:35.781Z,0.32
2024-05-09T00:03:48.237Z,0.42
2024-05-09T00:06:53.781Z,0.44
2024-05-09T00:09:59.793Z,0.32
2024-05-09T00:13:08.720Z,0.14
2024-05-09T00:16:14.473Z,-0.15
2024-05-09T00:19:21.384Z,-0.19
2024-05-09T00:22:29.109Z,-0.11
2024-05-09T00:25:34.612Z,-0.14
2024-05-09T00:28:43.072Z,-0.26
2024-05-09T00:31:51.106Z,-0.22
2024-05-09T00:34:56.671Z,-0.03
2024-05-09T00:38:04.749Z,-0.15
2024-05-09T00:41:10.690Z,-0.25
2024-05-09T00:44:21.586Z,-0.16
2024-05-09T00:47:27.612Z,-0.47
2024-05-09T00:50:36.540Z,-0.20
2024-05-09T00:53:43.305Z,-0.49
2024-05-09T00:56:52.533Z,-0.42
2024-05-09T01:00:00.720Z,-0.71
2024-05-09T01:03:09.715Z,-0.40
2024-05-09T01:06:17.310Z,-0.58
2024-05-09T01:09:24.687Z,-0.60
2024-05-09T01:12:33.343Z,-0.52
2024-05-09T01:15:44.970Z,-0.79
2024-05-09T01:18:56.735Z,-0.76
2024-05-09T01:22:08.322Z,-0.56
2024-05-09T01:25:16.673Z,-0.67
2024-05-09T01:28:23.505Z,-0.49
2024-05-09T01:31:30.670Z,-0.44
2024-05-09T01:34:36.120Z,-0.44
2024-05-09T01:37:41.531Z,-0.61
2024-05-09T01:40:50.061Z,-0.62
2024-05-09T01:43:55.774Z,-0.63
2024-05-09T01:47:01.360Z,-0.41
2024-05-09T01:50:11.072Z,-0.48
2024-05-09T01:53:17.696Z,-0.33
2024-05-09T01:56:26.884Z,-0.60
2024-05-09T01:59:35.262Z,-0.65
2024-05-09T02:02:41.897Z,-0.18
2024-05-09T02:05:50.697Z,-0.34
2024-05-09T02:08:56.247Z,-0.25
2024-05-09T02:12:04.762Z,-0.47
2024-05-09T02:15:10.826Z,-0.34
2024-05-09T02:18:18.256Z,-0.15
2024-05-09T02:21:26.714Z,-0.04
2024-05-09T02:24:34.937Z,-0.31
2024-05-09T02:27:43.069Z,-0.51
2024-05-09T02:30:48.397Z,-0.44
2024-05-09T02:33:53.956Z,-0.28
2024-05-09T02:36:59.501Z,-0.43
2024-05-09T02:40:03.281Z,-0.32
2024-05-09T02:43:14.997Z,-0.24
2024-05-09T02:46:23.337Z,-0.04
2024-05-09T02:49:31.160Z,-0.40
2024-05-09T02:52:36.567Z,-0.50
2024-05-09T02:55:46.828Z,-0.33
2024-05-09T02:58:52.313Z,-0.29
2024-05-09T03:01:57.829Z,-0.01
2024-05-09T03:05:03.611Z,0.08
2024-05-09T03:08:09.906Z,-0.10
2024-05-09T03:11:21.414Z,0.36
2024-05-09T03:14:41.638Z,0.55
2024-05-09T03:17:46.311Z,0.28
2024-05-09T03:20:51.912Z,-0.06
2024-05-09T03:23:57.264Z,0.36
2024-05-09T03:27:00.070Z,0.62
2024-05-09T03:30:10.016Z,0.06
2024-05-09T03:33:19.425Z,0.53
2024-05-09T03:36:46.828Z,0.68
2024-05-09T03:39:54.006Z,1.18
2024-05-09T03:42:59.542Z,0.66
2024-05-09T03:46:07.955Z,0.75
2024-05-09T03:49:13.797Z,0.49
2024-05-09T03:52:24.246Z,0.62
2024-05-09T03:55:27.058Z,0.86
2024-05-09T03:58:33.138Z,0.60
2024-05-09T04:01:41.415Z,0.63
2024-05-09T04:04:45.224Z,0.75
2024-05-09T04:07:53.992Z,1.19
2024-05-09T04:10:56.993Z,1.33
2024-05-09T04:14:04.307Z,1.13
2024-05-09T04:17:12.867Z,0.20
2024-05-09T04:20:24.807Z,0.56
2024-05-09T04:23:39.559Z,0.72
2024-05-09T04:26:49.955Z,1.04
2024-05-09T04:29:52.771Z,0.84
2024-05-09T04:33:07.473Z,1.14
2024-05-09T04:36:14.587Z,0.90
2024-05-09T04:39:17.483Z,0.64
2024-05-09T04:42:23.958Z,0.29
2024-05-09T04:45:26.642Z,1.74
2024-05-09T04:48:35.281Z,1.19
2024-05-09T04:51:40.779Z,0.80
2024-05-09T04:54:44.350Z,1.62
2024-05-09T04:57:51.259Z,1.70
2024-05-09T05:01:16.216Z,1.47
2024-05-09T05:04:27.291Z,0.74
2024-05-09T05:07:33.020Z,1.12
2024-05-09T05:10:41.307Z,1.07
2024-05-09T05:13:44.249Z,0.84
2024-05-09T05:16:49.797Z,0.41
2024-05-09T05:19:56.934Z,-0.32
2024-05-09T05:23:02.680Z,0.09
2024-05-09T05:26:12.075Z,1.02
2024-05-09T05:29:49.820Z,0.81
2024-05-09T05:32:53.034Z,1.28
2024-05-09T05:36:06.077Z,0.47
2024-05-09T05:39:11.799Z,0.25
2024-05-09T05:42:16.835Z,1.00
2024-05-09T05:45:22.313Z,0.89
2024-05-09T05:48:29.288Z,0.43
2024-05-09T05:51:40.449Z,0.44
2024-05-09T05:54:52.022Z,1.11
2024-05-09T05:57:54.889Z,1.68
2024-05-09T06:01:00.454Z,1.27
2024-05-09T06:04:04.044Z,1.42
2024-05-09T06:07:14.634Z,0.87
2024-05-09T06:10:25.119Z,0.84
2024-05-09T06:13:31.592Z,1.51
2024-05-09T06:16:36.997Z,1.68
2024-05-09T06:19:42.493Z,1.80
2024-05-09T06:22:48.380Z,1.33
2024-05-09T06:25:53.862Z,1.16
2024-05-09T06:28:56.604Z,2.18
2024-05-09T06:32:44.377Z,1.20
2024-05-09T06:35:50.044Z,0.94
2024-05-09T06:38:58.094Z,1.02
2024-05-09T06:42:00.888Z,1.62
2024-05-09T06:45:07.512Z,1.17
2024-05-09T06:48:13.251Z,1.56
2024-05-09T06:51:19.214Z,1.88
2024-05-09T06:54:25.598Z,2.99
2024-05-09T06:57:31.763Z,0.91
2024-05-09T07:00:41.647Z,1.09
2024-05-09T07:03:47.852Z,0.96
2024-05-09T07:06:50.688Z,1.40
2024-05-09T07:09:59.934Z,1.74
2024-05-09T07:13:08.417Z,2.12
2024-05-09T07:16:10.789Z,2.68
2024-05-09T07:19:25.863Z,2.09
2024-05-09T07:22:37.806Z,2.36
2024-05-09T07:25:49.557Z,1.67
2024-05-09T07:29:01.085Z,1.90
2024-05-09T07:32:10.136Z,2.87
2024-05-09T07:35:15.347Z,2.17
2024-05-09T07:38:22.131Z,1.86
2024-05-09T07:41:58.807Z,2.97
2024-05-09T07:45:21.332Z,2.37
2024-05-09T07:50:01.406Z,1.21
2024-05-09T07:53:21.888Z,1.77
2024-05-09T07:55:22.897Z,2.37
2024-05-09T07:58:29.106Z,1.61
2024-05-09T08:01:34.869Z,2.03
2024-05-09T08:04:38.253Z,1.45
2024-05-09T08:07:47.220Z,1.51
2024-05-09T08:10:50.428Z,2.58
2024-05-09T08:13:58.530Z,2.29
2024-05-09T08:17:03.579Z,1.32
2024-05-09T08:20:11.414Z,2.02
2024-05-09T08:23:18.208Z,2.24
2024-05-09T08:26:23.844Z,1.64
2024-05-09T08:29:29.301Z,4.08
2024-05-09T08:32:35.434Z,3.07
2024-05-09T08:35:41.412Z,3.06
2024-05-09T08:38:44.615Z,2.25
2024-05-09T08:41:54.472Z,2.50
2024-05-09T08:45:00.612Z,2.53
2024-05-09T08:48:08.041Z,3.12
2024-05-09T08:51:12.040Z,2.51
2024-05-09T08:54:25.397Z,1.28
2024-05-09T08:57:30.430Z,1.71
2024-05-09T09:00:40.097Z,2.21
2024-05-09T09:03:48.220Z,3.23
2024-05-09T09:06:59.213Z,2.94
2024-05-09T09:10:05.679Z,2.48
2024-05-09T09:13:17.406Z,2.65
2024-05-09T09:16:38.875Z,2.69
2024-05-09T09:19:42.604Z,2.18
2024-05-09T09:22:50.105Z,2.96
2024-05-09T09:26:01.918Z,2.93
2024-05-09T09:29:07.340Z,3.49
2024-05-09T09:32:19.835Z,3.03
2024-05-09T09:35:24.407Z,2.95
2024-05-09T09:38:33.718Z,1.93
2024-05-09T09:41:38.483Z,2.49
2024-05-09T09:44:58.176Z,2.27
2024-05-09T09:48:15.731Z,2.02
2024-05-09T09:51:23.337Z,2.44
2024-05-09T09:54:29.445Z,2.94
2024-05-09T09:57:37.568Z,2.77
2024-05-09T10:00:45.101Z,3.24
2024-05-09T10:04:08.460Z,2.47
2024-05-09T10:07:21.295Z,2.28
2024-05-09T10:13:44.986Z,2.75
2024-05-09T10:16:50.959Z,2.74
2024-05-09T10:20:14.917Z,3.03
2024-05-09T10:23:30.942Z,3.93
2024-05-09T10:26:35.327Z,4.07
2024-05-09T10:29:42.750Z,3.40
2024-05-09T10:32:47.219Z,3.61
2024-05-09T10:36:00.198Z,3.62
2024-05-09T10:39:09.172Z,3.76
2024-05-09T10:42:12.203Z,4.11
2024-05-09T10:45:23.214Z,3.29
2024-05-09T10:48:27.260Z,3.54
2024-05-09T10:51:35.579Z,3.07
2024-05-09T10:54:39.753Z,3.00
2024-05-09T10:57:45.386Z,2.76
2024-05-09T11:00:59.361Z,3.57
2024-05-09T11:04:06.590Z,3.48
2024-05-09T11:07:14.695Z,3.57
2024-05-09T11:10:27.800Z,4.20
2024-05-09T11:13:47.431Z,3.95
2024-05-09T11:17:12.872Z,3.39
2024-05-09T11:20:29.409Z,3.30
2024-05-09T11:23:38.632Z,3.42
2024-05-09T11:26:43.135Z,4.25
2024-05-09T11:29:49.626Z,4.70
2024-05-09T11:32:55.138Z,4.41
2024-05-09T11:36:02.681Z,4.17
2024-05-09T11:40:34.239Z,3.55
2024-05-09T11:44:15.690Z,3.62
2024-05-09T11:48:03.508Z,4.26
2024-05-09T11:51:33.049Z,5.06
2024-05-09T11:54:43.354Z,4.20
2024-05-09T11:57:46.912Z,4.32
2024-05-09T12:00:53.388Z,4.20
2024-05-09T12:03:57.011Z,4.15
2024-05-09T12:07:03.515Z,4.16
2024-05-09T12:10:39.904Z,5.02
2024-05-09T12:13:46.992Z,4.66
2024-05-09T12:16:54.710Z,5.38
2024-05-09T12:19:57.451Z,5.68
2024-05-09T12:23:02.890Z,4.92
2024-05-09T12:26:10.159Z,4.35
2024-05-09T12:29:23.920Z,4.39
2024-05-09T12:32:29.782Z,4.35
2024-05-09T12:35:59.037Z,3.65
2024-05-09T12:39:26.253Z,3.63
2024-05-09T12:46:54.010Z,4.02
2024-05-09T12:51:00.927Z,4.47
2024-05-09T12:54:32.278Z,4.68
2024-05-09T12:57:40.213Z,4.08
2024-05-09T13:04:47.210Z,4.66
2024-05-09T13:07:52.141Z,5.11
2024-05-09T13:10:59.708Z,5.29
2024-05-09T13:14:12.994Z,4.91
2024-05-09T13:17:18.595Z,5.31
2024-05-09T13:20:33.120Z,5.80
2024-05-09T13:23:42.480Z,5.23
2024-05-09T13:26:45.647Z,5.89
2024-05-09T13:29:53.632Z,5.42
2024-05-09T13:33:07.034Z,5.16
2024-05-09T13:36:17.228Z,5.41
2024-05-09T13:39:23.789Z,5.23
2024-05-09T13:42:34.211Z,6.04
2024-05-09T13:45:37.220Z,6.06
2024-05-09T13:48:44.164Z,5.33
2024-05-09T13:51:53.813Z,5.04
2024-05-09T13:54:59.732Z,4.87
2024-05-09T13:58:03.517Z,5.23
2024-05-09T14:01:12.133Z,5.80
2024-05-09T14:04:15.069Z,5.47
2024-05-09T14:07:23.788Z,5.49
2024-05-09T14:13:34.112Z,5.65
2024-05-09T14:16:42.220Z,5.12
2024-05-09T14:19:48.602Z,5.60
2024-05-09T14:22:56.177Z,5.83
2024-05-09T14:26:04.324Z,5.66
2024-05-09T14:29:09.552Z,5.98
2024-05-09T14:32:14.966Z,6.15
2024-05-09T14:35:25.711Z,6.60
2024-05-09T14:38:43.125Z,6.33
2024-05-09T14:41:48.473Z,6.65
2024-05-09T14:44:51.857Z,5.90
2024-05-09T14:47:57.485Z,5.85
2024-05-09T14:51:02.899Z,6.07
2024-05-09T14:54:08.340Z,5.78
2024-05-09T14:57:14.062Z,6.24
2024-05-09T15:00:26.298Z,6.24
2024-05-09T15:03:42.370Z,6.47
2024-05-09T15:06:48.748Z,6.08
2024-05-09T15:09:54.396Z,6.80
2024-05-09T15:12:59.927Z,6.63
2024-05-09T15:16:03.405Z,6.62
2024-05-09T15:19:08.945Z,6.75
2024-05-09T15:22:16.459Z,6.94
2024-05-09T15:25:24.806Z,6.88
2024-05-09T15:28:31.767Z,6.75
2024-05-09T15:31:46.098Z,6.60
2024-05-09T15:34:52.708Z,6.56
2024-05-09T15:37:55.902Z,6.19
2024-05-09T15:41:04.258Z,6.13
2024-05-09T15:44:06.891Z,5.91
2024-05-09T15:47:12.490Z,5.85
2024-05-09T15:50:20.616Z,6.23
2024-05-09T15:53:34.002Z,6.58
2024-05-09T15:56:47.261Z,6.50
2024-05-09T15:59:50.080Z,6.36
2024-05-09T16:02:56.595Z,6.34
2024-05-09T16:06:02.434Z,6.48
2024-05-09T16:09:09.184Z,6.43
2024-05-09T16:12:17.309Z,6.63
2024-05-09T16:15:20.040Z,6.29
2024-05-09T16:18:35.057Z,6.29
2024-05-09T16:21:48.102Z,6.33
2024-05-09T16:25:12.962Z,6.23
2024-05-09T16:28:23.007Z,6.27
2024-05-09T16:31:27.489Z,5.90
2024-05-09T16:34:35.043Z,6.18
2024-05-09T16:37:38.761Z,5.57
2024-05-09T16:40:44.360Z,5.79
2024-05-09T16:43:54.907Z,5.79
2024-05-09T16:47:00.778Z,5.76
2024-05-09T16:50:10.796Z,5.85
2024-05-09T16:53:19.660Z,5.68
2024-05-09T16:56:27.710Z,5.25
2024-05-09T16:59:39.161Z,5.76
2024-05-09T17:02:50.629Z,5.58
2024-05-09T17:05:56.275Z,5.56
2024-05-09T17:09:08.095Z,5.38
2024-05-09T17:12:17.547Z,5.80
2024-05-09T17:15:34.284Z,5.93
2024-05-09T17:18:42.875Z,5.77
2024-05-09T17:21:51.129Z,5.71
2024-05-09T17:25:46.951Z,5.72
2024-05-09T17:33:07.472Z,5.58
2024-05-09T17:36:13.822Z,5.48
2024-05-09T17:39:19.805Z,5.40
2024-05-09T17:42:27.614Z,5.33
2024-05-09T17:45:32.098Z,5.28
2024-05-09T17:49:02.632Z,5.14
2024-05-09T17:52:18.303Z,4.94
2024-05-09T17:55:31.867Z,5.00
2024-05-09T17:58:42.161Z,4.93
2024-05-09T18:01:50.462Z,4.69
2024-05-09T18:06:12.222Z,4.81
2024-05-09T18:09:38.403Z,4.85
2024-05-09T18:12:49.184Z,4.79
2024-05-09T18:15:55.962Z,4.77
2024-05-09T18:19:03.148Z,4.77
2024-05-09T18:22:09.546Z,4.67
2024-05-09T18:25:15.294Z,4.32
2024-05-09T18:28:29.502Z,4.47
2024-05-09T18:31:33.249Z,4.54
2024-05-09T18:34:39.087Z,4.56
2024-05-09T18:37:59.087Z,4.41
2024-05-09T18:41:20.667Z,4.31
2024-05-09T18:44:27.553Z,4.32
2024-05-09T18:48:03.540Z,4.37
2024-05-09T18:51:20.417Z,4.43
2024-05-09T18:54:30.555Z,4.32
2024-05-09T18:57:36.673Z,4.09
2024-05-09T19:00:50.329Z,3.73
2024-05-09T19:04:02.365Z,3.68
2024-05-09T19:07:12.348Z,3.64
2024-05-09T19:10:22.583Z,3.63
2024-05-09T19:13:34.450Z,3.56
2024-05-09T19:16:40.628Z,3.79
2024-05-09T19:19:43.763Z,3.73
2024-05-09T19:22:49.430Z,3.63
2024-05-09T19:25:52.587Z,3.58
2024-05-09T19:29:00.823Z,3.62
2024-05-09T19:32:08.393Z,3.65
2024-05-09T19:35:27.343Z,3.46
2024-05-09T19:39:00.780Z,3.34
2024-05-09T19:42:19.932Z,2.88
2024-05-09T19:45:25.449Z,3.21
2024-05-09T19:55:28.783Z,3.47
2024-05-09T19:58:34.702Z,3.32
2024-05-09T20:01:45.313Z,3.35
2024-05-09T20:04:55.222Z,3.21
2024-05-09T20:07:59.006Z,3.17
2024-05-09T20:11:04.714Z,3.14
2024-05-09T20:14:10.726Z,3.12
2024-05-09T20:17:19.808Z,2.93
2024-05-09T20:20:48.404Z,2.80
2024-05-09T20:23:57.519Z,2.85
2024-05-09T20:27:12.005Z,2.94
2024-05-09T20:30:31.215Z,3.10
2024-05-09T20:33:56.929Z,3.24
2024-05-09T20:37:10.521Z,2.86
2024-05-09T20:40:25.327Z,2.95
2024-05-09T20:43:39.654Z,2.76
2024-05-09T20:46:42.414Z,2.67
2024-05-09T20:49:51.263Z,2.63
2024-05-09T20:52:54.056Z,2.77
2024-05-09T20:55:59.632Z,2.53
2024-05-09T20:59:03.371Z,2.67
2024-05-09T21:02:24.916Z,2.65
2024-05-09T21:05:45.580Z,2.80
2024-05-09T21:08:51.391Z,2.82
2024-05-09T21:11:55.355Z,2.76
2024-05-09T21:15:01.031Z,2.56
2024-05-09T21:18:04.407Z,2.69
2024-05-09T21:21:12.933Z,2.74
2024-05-09T21:24:18.604Z,2.75
2024-05-09T21:27:21.403Z,2.79
2024-05-09T21:30:32.904Z,2.83
2024-05-09T21:33:43.582Z,2.88
2024-05-09T21:36:51.822Z,2.93
2024-05-09T21:39:54.964Z,2.86
2024-05-09T21:43:00.668Z,3.02
2024-05-09T21:46:03.887Z,2.95
2024-05-09T21:49:09.374Z,2.78
2024-05-09T21:52:14.984Z,2.83
2024-05-09T21:55:20.533Z,2.91
2024-05-09T21:58:23.871Z,2.94
2024-05-09T22:01:29.426Z,2.96
2024-05-09T22:04:32.430Z,2.79
2024-05-09T22:07:40.576Z,2.83
2024-05-09T22:10:43.624Z,3.02
2024-05-09T22:13:49.276Z,2.82
2024-05-09T22:16:52.184Z,2.95
2024-05-09T22:19:57.671Z,2.90
2024-05-09T22:23:03.468Z,3.02
2024-05-09T22:26:09.202Z,2.92
2024-05-09T22:29:12.520Z,2.93
2024-05-09T22:32:18.237Z,2.96
2024-05-09T22:35:21.368Z,2.95
2024-05-09T22:38:29.511Z,2.93
2024-05-09T22:41:34.945Z,3.14
2024-05-09T22:44:54.951Z,3.15
2024-05-09T22:48:04.920Z,2.89
2024-05-09T22:51:07.856Z,2.87
2024-05-09T22:54:21.757Z,2.93
2024-05-09T22:57:27.370Z,2.86
2024-05-09T23:00:32.350Z,2.94
2024-05-09T23:03:41.849Z,2.93
2024-05-09T23:06:44.739Z,3.00
2024-05-09T23:09:52.869Z,3.10
2024-05-09T23:12:55.745Z,3.15
2024-05-09T23:16:01.435Z,3.14
2024-05-09T23:19:07.082Z,3.29
2024-05-09T23:22:09.992Z,3.24
2024-05-09T23:25:18.496Z,3.45
2024-05-09T23:28:21.484Z,3.48
2024-05-09T23:31:27.171Z,3.50
2024-05-09T23:34:30.364Z,3.56
2024-05-09T23:37:35.944Z,3.51
2024-05-09T23:40:42.644Z,3.41
2024-05-09T23:43:48.836Z,3.35
2024-05-09T23:46:54.328Z,3.38
2024-05-09T23:49:57.085Z,3.46
2024-05-09T23:53:02.533Z,3.69
2024-05-09T23:56:08.599Z,3.78
2024-05-09T23:59:13.971Z,3.58
